createdAt,value
2019-05-09T00:02:21.119Z,10.88
2019-05-09T00:04:53.280Z,11.00
2019-05-09T00:07:23.638Z,10.85
2019-05-09T00:09:54.247Z,11.18
2019-05-09T00:12:24.453Z,10.23
2019-05-09T00:14:54.685Z,11.75
2019-05-09T00:18:23.675Z,11.05
2019-05-09T00:21:08.571Z,12.03
2019-05-09T00:23:38.765Z,10.82
2019-05-09T00:26:09.035Z,11.85
2019-05-09T00:28:40.863Z,12.65
2019-05-09T00:31:13.719Z,10.98
2019-05-09T00:33:48.053Z,12.10
2019-05-09T00:36:17.799Z,11.40
2019-05-09T00:38:47.981Z,12.43
2019-05-09T00:41:18.210Z,12.23
2019-05-09T00:43:50.106Z,13.38
2019-05-09T00:46:27.755Z,12.35
2019-05-09T00:48:59.583Z,12.10
2019-05-09T00:51:29.929Z,11.97
2019-05-09T00:54:00.119Z,13.33
2019-05-09T00:56:30.404Z,10.30
2019-05-09T00:59:00.590Z,12.40
2019-05-09T01:01:30.803Z,11.97
2019-05-09T01:04:01.163Z,10.60
2019-05-09T01:06:33.811Z,11.28
2019-05-09T01:09:05.426Z,10.80
2019-05-09T01:11:35.750Z,10.08
2019-05-09T01:14:06.075Z,11.23
2019-05-09T01:16:36.297Z,11.40
2019-05-09T01:19:06.486Z,11.80
2019-05-09T01:21:36.702Z,10.82
2019-05-09T01:24:06.899Z,9.60
2019-05-09T01:26:37.178Z,10.85
2019-05-09T01:29:07.371Z,10.58
2019-05-09T01:31:37.583Z,10.08
2019-05-09T01:34:19.460Z,11.65
2019-05-09T01:37:05.978Z,10.63
2019-05-09T01:39:36.255Z,10.03
2019-05-09T01:42:06.480Z,9.70
2019-05-09T01:44:36.761Z,9.53
2019-05-09T01:47:59.423Z,9.30
2019-05-09T01:50:29.663Z,10.55
2019-05-09T01:52:59.870Z,9.55
2019-05-09T01:55:49.321Z,8.93
2019-05-09T01:58:19.535Z,8.68
2019-05-09T02:00:49.739Z,9.65
2019-05-09T02:03:23.351Z,10.18
2019-05-09T02:05:53.466Z,9.43
2019-05-09T02:08:23.809Z,10.50
2019-05-09T02:10:56.079Z,9.47
2019-05-09T02:13:26.302Z,9.43
2019-05-09T02:15:58.310Z,9.30
2019-05-09T02:18:30.159Z,8.70
2019-05-09T02:21:00.364Z,9.45
2019-05-09T02:23:30.566Z,9.23
2019-05-09T02:26:00.775Z,9.75
2019-05-09T02:28:30.983Z,10.28
2019-05-09T02:31:04.766Z,10.58
2019-05-09T02:33:34.733Z,9.10
2019-05-09T02:36:05.038Z,9.53
2019-05-09T02:38:35.295Z,9.38
2019-05-09T02:41:08.374Z,10.25
2019-05-09T02:43:38.865Z,9.68
2019-05-09T02:46:19.221Z,9.18
2019-05-09T02:48:49.768Z,9.65
2019-05-09T02:51:20.109Z,10.80
2019-05-09T02:53:50.327Z,10.08
2019-05-09T02:56:20.642Z,9.93
2019-05-09T02:58:58.906Z,10.90
2019-05-09T03:01:31.852Z,10.88
2019-05-09T03:04:02.075Z,9.90
2019-05-09T03:06:32.303Z,9.50
2019-05-09T03:09:02.610Z,8.70
2019-05-09T03:11:32.826Z,9.95
2019-05-09T03:14:03.186Z,7.83
2019-05-09T03:16:33.456Z,8.43
2019-05-09T03:19:03.668Z,7.87
2019-05-09T03:21:39.038Z,8.05
2019-05-09T03:24:09.829Z,7.60
2019-05-09T03:26:42.453Z,7.40
2019-05-09T03:29:14.381Z,9.10
2019-05-09T03:31:50.014Z,7.53
2019-05-09T03:34:19.496Z,8.20
2019-05-09T03:36:50.195Z,7.37
2019-05-09T03:39:20.595Z,8.25
2019-05-09T03:41:50.962Z,6.67
2019-05-09T03:44:21.241Z,6.33
2019-05-09T03:47:02.107Z,5.92
2019-05-09T03:49:32.423Z,5.67
2019-05-09T03:54:33.418Z,5.45
2019-05-09T03:57:07.727Z,6.42
2019-05-09T03:59:38.266Z,5.47
2019-05-09T04:02:10.288Z,5.42
2019-05-09T04:04:40.430Z,5.42
2019-05-09T04:07:10.620Z,4.80
2019-05-09T04:12:11.191Z,4.40
2019-05-09T04:14:41.546Z,4.92
2019-05-09T04:17:12.208Z,4.95
2019-05-09T04:19:42.404Z,4.80
2019-05-09T04:22:12.655Z,5.20
2019-05-09T04:24:43.133Z,5.03
2019-05-09T04:27:17.848Z,5.72
2019-05-09T04:29:48.471Z,4.62
2019-05-09T04:32:19.011Z,5.12
2019-05-09T04:34:49.211Z,4.45
2019-05-09T04:37:19.393Z,4.92
2019-05-09T04:42:21.782Z,4.05
2019-05-09T04:44:58.887Z,4.50
2019-05-09T04:47:27.991Z,3.90
2019-05-09T04:49:58.471Z,3.37
2019-05-09T04:52:28.736Z,3.02
2019-05-09T04:55:02.198Z,2.85
2019-05-09T04:57:32.442Z,2.30
2019-05-09T05:00:03.194Z,2.50
2019-05-09T05:02:35.018Z,1.90
2019-05-09T05:05:07.845Z,2.00
2019-05-09T05:07:37.774Z,1.77
2019-05-09T05:10:09.003Z,1.70
2019-05-09T05:12:40.518Z,1.80
2019-05-09T05:15:10.808Z,1.37
2019-05-09T05:17:41.342Z,1.65
2019-05-09T05:20:13.654Z,1.85
2019-05-09T05:22:47.803Z,1.50
2019-05-09T05:25:18.067Z,1.47
2019-05-09T05:27:48.251Z,1.82
2019-05-09T05:30:18.571Z,1.60
2019-05-09T05:32:57.924Z,1.52
2019-05-09T05:35:30.217Z,1.37
2019-05-09T05:38:00.613Z,1.45
2019-05-09T05:40:33.480Z,2.03
2019-05-09T05:43:02.837Z,1.70
2019-05-09T05:45:34.682Z,1.82
2019-05-09T05:48:09.312Z,1.82
2019-05-09T05:50:39.506Z,1.80
2019-05-09T05:53:09.724Z,1.80
2019-05-09T05:55:40.057Z,1.80
2019-05-09T05:58:10.256Z,1.60
2019-05-09T06:00:40.561Z,1.70
2019-05-09T06:03:21.051Z,1.42
2019-05-09T06:05:51.873Z,2.15
2019-05-09T06:08:22.106Z,2.00
2019-05-09T06:10:52.331Z,1.98
2019-05-09T06:13:22.571Z,1.82
2019-05-09T06:15:52.774Z,1.62
2019-05-09T06:18:22.953Z,1.55
2019-05-09T06:20:53.156Z,1.50
2019-05-09T06:23:23.406Z,1.55
2019-05-09T06:28:24.087Z,1.82
2019-05-09T06:30:54.286Z,1.80
2019-05-09T06:33:24.543Z,1.65
2019-05-09T06:35:54.752Z,2.00
2019-05-09T06:38:24.953Z,1.87
2019-05-09T06:40:55.254Z,1.82
2019-05-09T06:43:29.050Z,2.00
2019-05-09T06:46:09.697Z,1.80
2019-05-09T06:48:41.140Z,1.90
2019-05-09T06:51:11.447Z,1.98
2019-05-09T06:53:41.634Z,1.95
2019-05-09T06:56:11.903Z,1.70
2019-05-09T06:58:42.960Z,1.90
2019-05-09T07:01:18.256Z,2.15
2019-05-09T07:04:09.153Z,1.90
2019-05-09T07:10:28.272Z,2.08
2019-05-09T07:12:58.567Z,1.57
2019-05-09T07:15:28.907Z,2.00
2019-05-09T07:17:59.219Z,2.15
2019-05-09T07:24:20.673Z,2.10
2019-05-09T07:26:51.026Z,2.20
2019-05-09T07:29:21.420Z,2.00
2019-05-09T07:35:03.139Z,2.12
2019-05-09T07:37:33.422Z,2.20
2019-05-09T07:40:08.134Z,2.45
2019-05-09T07:42:39.237Z,2.50
2019-05-09T07:45:09.667Z,2.07
2019-05-09T07:47:40.919Z,2.40
2019-05-09T07:50:11.355Z,2.15
2019-05-09T07:52:41.555Z,2.03
2019-05-09T07:55:11.799Z,2.33
2019-05-09T07:57:46.285Z,2.02
2019-05-09T08:00:14.072Z,2.08
2019-05-09T08:02:44.290Z,2.30
2019-05-09T08:05:17.835Z,2.42
2019-05-09T08:07:48.621Z,2.90
2019-05-09T08:10:19.140Z,2.30
2019-05-09T08:12:49.420Z,2.27
2019-05-09T08:15:20.369Z,1.92
2019-05-09T08:17:51.279Z,2.12
2019-05-09T08:20:58.352Z,2.35
2019-05-09T08:23:28.626Z,2.33
2019-05-09T08:25:58.925Z,2.62
2019-05-09T08:28:29.101Z,2.10
2019-05-09T08:30:59.309Z,2.47
2019-05-09T08:33:29.493Z,2.52
2019-05-09T08:35:59.929Z,2.10
2019-05-09T08:38:30.112Z,2.63
2019-05-09T08:41:10.205Z,2.72
2019-05-09T08:43:40.686Z,2.85
2019-05-09T08:46:10.959Z,3.13
2019-05-09T08:48:41.218Z,3.00
2019-05-09T08:51:18.060Z,3.10
2019-05-09T08:53:48.436Z,3.20
2019-05-09T08:56:18.643Z,2.90
2019-05-09T08:58:48.883Z,2.95
2019-05-09T09:01:30.742Z,2.90
2019-05-09T09:03:51.010Z,3.12
2019-05-09T09:06:21.549Z,2.65
2019-05-09T09:08:51.792Z,2.70
2019-05-09T09:11:21.998Z,2.22
2019-05-09T09:13:52.175Z,2.85
2019-05-09T09:16:22.714Z,2.55
2019-05-09T09:18:53.200Z,2.45
2019-05-09T09:21:23.579Z,2.87
2019-05-09T09:23:53.924Z,3.08
2019-05-09T09:26:24.127Z,3.08
2019-05-09T09:28:54.405Z,2.10
2019-05-09T09:31:24.664Z,2.10
2019-05-09T09:33:54.859Z,2.02
2019-05-09T09:36:25.207Z,2.20
2019-05-09T09:38:55.445Z,2.10
2019-05-09T09:41:25.675Z,2.40
2019-05-09T09:43:58.035Z,2.75
2019-05-09T09:46:28.578Z,2.17
2019-05-09T09:48:59.205Z,2.15
2019-05-09T09:51:29.612Z,2.58
2019-05-09T09:53:59.804Z,2.20
2019-05-09T09:56:30.018Z,2.50
2019-05-09T09:59:02.591Z,2.27
2019-05-09T10:01:34.445Z,2.33
2019-05-09T10:04:16.737Z,2.30
2019-05-09T10:06:39.048Z,1.82
2019-05-09T10:09:09.564Z,2.20
2019-05-09T10:11:39.778Z,2.05
2019-05-09T10:14:12.343Z,2.27
2019-05-09T10:17:02.430Z,2.27
2019-05-09T10:19:34.302Z,2.10
2019-05-09T10:22:29.128Z,2.10
2019-05-09T10:24:59.379Z,2.55
2019-05-09T10:27:29.856Z,2.30
2019-05-09T10:30:00.022Z,2.20
2019-05-09T10:32:30.237Z,2.50
2019-05-09T10:35:00.409Z,2.25
2019-05-09T10:37:30.624Z,2.37
2019-05-09T10:40:00.806Z,2.60
2019-05-09T10:42:32.660Z,2.55
2019-05-09T10:45:13.864Z,2.40
2019-05-09T10:47:44.079Z,2.50
2019-05-09T10:50:14.265Z,2.02
2019-05-09T10:52:44.485Z,2.10
2019-05-09T10:55:14.694Z,2.27
2019-05-09T10:57:44.915Z,1.85
2019-05-09T11:00:15.183Z,2.40
2019-05-09T11:02:45.479Z,2.65
2019-05-09T11:05:15.695Z,2.05
2019-05-09T11:11:12.206Z,2.65
2019-05-09T11:13:42.415Z,2.30
2019-05-09T11:16:12.600Z,2.67
2019-05-09T11:18:42.894Z,2.45
2019-05-09T11:21:13.067Z,2.47
2019-05-09T11:23:43.271Z,2.15
2019-05-09T11:26:13.522Z,2.50
2019-05-09T11:28:43.734Z,2.27
2019-05-09T11:31:14.158Z,2.77
2019-05-09T11:33:44.615Z,2.60
2019-05-09T11:36:17.444Z,2.25
2019-05-09T11:38:49.445Z,2.58
2019-05-09T11:41:19.487Z,2.42
2019-05-09T11:43:49.948Z,2.35
2019-05-09T11:46:20.275Z,2.20
2019-05-09T11:48:50.491Z,2.25
2019-05-09T11:51:22.846Z,2.85
2019-05-09T11:53:52.586Z,2.92
2019-05-09T11:56:22.827Z,2.85
2019-05-09T11:58:53.122Z,3.10
2019-05-09T12:01:23.328Z,3.55
2019-05-09T12:03:54.796Z,3.30
2019-05-09T12:06:24.978Z,2.52
2019-05-09T12:08:55.251Z,2.50
2019-05-09T12:11:25.450Z,3.02
2019-05-09T12:13:57.942Z,2.90
2019-05-09T12:16:28.058Z,2.62
2019-05-09T12:18:58.715Z,3.30
2019-05-09T12:21:29.384Z,2.90
2019-05-09T12:23:59.660Z,2.87
2019-05-09T12:26:29.847Z,2.58
2019-05-09T12:29:00.098Z,2.58
2019-05-09T12:31:30.266Z,2.42
2019-05-09T12:34:00.578Z,2.87
2019-05-09T12:36:30.839Z,2.40
2019-05-09T12:39:01.352Z,2.10
2019-05-09T12:44:02.425Z,1.90
2019-05-09T12:46:32.724Z,2.40
2019-05-09T12:49:03.045Z,1.93
2019-05-09T12:51:34.513Z,2.20
2019-05-09T12:54:04.776Z,2.70
2019-05-09T12:56:35.050Z,2.87
2019-05-09T12:59:05.232Z,3.15
2019-05-09T13:01:39.855Z,2.85
2019-05-09T13:04:09.701Z,2.58
2019-05-09T13:06:39.320Z,3.50
2019-05-09T13:09:09.854Z,3.35
2019-05-09T13:11:40.136Z,3.55
2019-05-09T13:14:10.404Z,4.10
2019-05-09T13:16:49.573Z,3.10
2019-05-09T13:19:18.720Z,3.70
2019-05-09T13:21:49.003Z,4.10
2019-05-09T13:24:19.803Z,4.17
2019-05-09T13:26:51.569Z,3.50
2019-05-09T13:29:21.761Z,2.85
2019-05-09T13:31:51.970Z,3.35
2019-05-09T13:34:22.166Z,3.10
2019-05-09T13:36:52.368Z,3.83
2019-05-09T13:39:22.631Z,4.15
2019-05-09T13:41:52.916Z,3.98
2019-05-09T13:44:23.094Z,4.70
2019-05-09T13:46:53.307Z,4.95
2019-05-09T13:49:23.487Z,4.58
2019-05-09T13:52:00.406Z,4.45
2019-05-09T13:54:28.333Z,4.80
2019-05-09T13:57:11.112Z,4.25
2019-05-09T13:59:41.327Z,4.62
2019-05-09T14:02:11.617Z,4.83
2019-05-09T14:04:41.818Z,4.08
2019-05-09T14:07:12.008Z,2.33
2019-05-09T14:09:42.221Z,2.50
2019-05-09T14:12:12.426Z,2.20
2019-05-09T14:14:42.617Z,2.33
2019-05-09T14:17:13.876Z,2.33
2019-05-09T14:19:46.748Z,2.87
2019-05-09T14:22:18.061Z,2.77
2019-05-09T14:24:48.488Z,3.25
2019-05-09T14:27:18.893Z,3.23
2019-05-09T14:29:49.824Z,4.00
2019-05-09T14:32:20.125Z,3.00
2019-05-09T14:34:50.313Z,2.90
2019-05-09T14:37:20.506Z,3.65
2019-05-09T14:39:58.480Z,3.83
2019-05-09T14:42:22.570Z,4.75
2019-05-09T14:44:52.763Z,3.58
2019-05-09T14:47:22.982Z,3.80
2019-05-09T14:49:53.164Z,4.58
2019-05-09T14:52:23.377Z,4.08
2019-05-09T14:54:53.555Z,5.05
2019-05-09T14:57:23.784Z,9.95
2019-05-09T14:59:54.046Z,10.98
2019-05-09T15:02:24.259Z,11.63
2019-05-09T15:04:54.476Z,12.13
2019-05-09T15:07:24.796Z,10.00
2019-05-09T15:09:56.907Z,8.95
2019-05-09T15:12:28.504Z,7.17
2019-05-09T15:14:59.036Z,6.85
2019-05-09T15:17:29.308Z,5.53
2019-05-09T15:20:00.590Z,4.45
2019-05-09T15:22:31.082Z,4.05
2019-05-09T15:25:01.363Z,3.05
2019-05-09T15:27:31.611Z,2.87
2019-05-09T15:30:01.847Z,2.80
2019-05-09T15:32:32.151Z,2.63
2019-05-09T15:35:02.394Z,2.60
2019-05-09T15:37:32.653Z,3.17
2019-05-09T15:40:02.943Z,3.02
2019-05-09T15:42:33.232Z,3.30
2019-05-09T15:45:07.724Z,2.90
2019-05-09T15:47:38.146Z,2.50
2019-05-09T15:50:19.221Z,2.37
2019-05-09T15:52:40.413Z,3.30
2019-05-09T15:55:12.576Z,4.15
2019-05-09T15:57:42.783Z,3.50
2019-05-09T16:00:14.332Z,3.50
2019-05-09T16:02:44.612Z,3.50
2019-05-09T16:05:14.901Z,4.08
2019-05-09T16:07:45.160Z,4.20
2019-05-09T16:10:17.836Z,4.50
2019-05-09T16:12:48.819Z,3.72
2019-05-09T16:15:19.324Z,4.90
2019-05-09T16:17:49.612Z,5.15
2019-05-09T16:20:36.320Z,4.78
2019-05-09T16:22:51.851Z,5.15
2019-05-09T16:25:22.104Z,5.17
2019-05-09T16:27:52.340Z,4.92
2019-05-09T16:30:22.614Z,5.20
2019-05-09T16:32:52.827Z,5.60
2019-05-09T16:35:23.115Z,6.05
2019-05-09T16:38:02.791Z,5.72
2019-05-09T16:40:25.297Z,5.40
2019-05-09T16:42:57.556Z,6.08
2019-05-09T16:45:28.701Z,6.12
2019-05-09T16:47:59.315Z,6.78
2019-05-09T16:50:29.504Z,7.50
2019-05-09T16:53:00.075Z,6.35
2019-05-09T16:55:50.018Z,5.90
2019-05-09T16:58:20.229Z,5.42
2019-05-09T17:00:52.271Z,5.33
2019-05-09T17:03:22.555Z,5.72
2019-05-09T17:05:52.841Z,6.42
2019-05-09T17:08:23.351Z,5.47
2019-05-09T17:10:53.577Z,6.45
2019-05-09T17:13:23.872Z,6.80
2019-05-09T17:15:54.202Z,6.70
2019-05-09T17:18:24.502Z,5.17
2019-05-09T17:21:18.507Z,5.40
2019-05-09T17:23:41.267Z,4.85
2019-05-09T17:26:11.872Z,4.35
2019-05-09T17:28:42.158Z,4.45
2019-05-09T17:31:12.352Z,5.10
2019-05-09T17:33:42.576Z,4.33
2019-05-09T17:36:12.932Z,4.55
2019-05-09T17:38:47.660Z,4.25
2019-05-09T17:41:20.551Z,5.08
2019-05-09T17:43:52.492Z,5.25
2019-05-09T17:46:24.567Z,4.42
2019-05-09T17:48:58.131Z,5.03
2019-05-09T17:51:33.956Z,5.17
2019-05-09T17:54:00.087Z,4.70
2019-05-09T17:56:30.403Z,4.20
2019-05-09T17:59:00.676Z,3.92
2019-05-09T18:01:31.180Z,3.50
2019-05-09T18:04:01.750Z,3.70
2019-05-09T18:06:32.533Z,4.70
2019-05-09T18:09:05.038Z,4.92
2019-05-09T18:11:37.627Z,5.47
2019-05-09T18:14:08.326Z,4.92
2019-05-09T18:16:39.219Z,5.12
2019-05-09T18:19:09.662Z,5.35
2019-05-09T18:21:50.314Z,5.20
2019-05-09T18:24:11.923Z,5.33
2019-05-09T18:26:42.515Z,5.28
2019-05-09T18:29:12.907Z,5.12
2019-05-09T18:31:44.787Z,5.20
2019-05-09T18:34:15.066Z,5.37
2019-05-09T18:36:45.489Z,4.60
2019-05-09T18:39:15.697Z,4.43
2019-05-09T18:41:48.231Z,4.42
2019-05-09T18:44:18.324Z,3.90
2019-05-09T18:46:50.124Z,3.75
2019-05-09T18:49:20.324Z,3.42
2019-05-09T18:52:02.735Z,3.87
2019-05-09T18:54:22.588Z,3.67
2019-05-09T18:56:52.840Z,3.75
2019-05-09T18:59:23.084Z,4.05
2019-05-09T19:01:53.281Z,4.03
2019-05-09T19:04:23.531Z,2.80
2019-05-09T19:06:53.749Z,2.58
2019-05-09T19:09:24.079Z,1.90
2019-05-09T19:11:55.493Z,2.25
2019-05-09T19:14:25.827Z,1.87
2019-05-09T19:17:04.707Z,2.02
2019-05-09T19:19:46.059Z,1.85
2019-05-09T19:24:47.472Z,2.05
2019-05-09T19:27:17.756Z,2.08
2019-05-09T19:29:47.978Z,2.25
2019-05-09T19:32:18.166Z,1.80
2019-05-09T19:34:48.358Z,1.75
2019-05-09T19:37:18.596Z,1.85
2019-05-09T19:39:48.784Z,2.65
2019-05-09T19:42:21.492Z,2.10
2019-05-09T19:44:51.705Z,2.55
2019-05-09T19:47:22.023Z,2.15
2019-05-09T19:49:52.228Z,2.83
2019-05-09T19:52:36.840Z,2.87
2019-05-09T19:54:54.393Z,2.80
2019-05-09T19:57:24.592Z,3.40
2019-05-09T19:59:54.824Z,3.20
2019-05-09T20:02:25.022Z,2.62
2019-05-09T20:04:55.271Z,3.08
2019-05-09T20:07:25.492Z,2.87
2019-05-09T20:10:03.254Z,3.17
2019-05-09T20:12:35.930Z,3.47
2019-05-09T20:15:10.991Z,3.50
2019-05-09T20:17:42.742Z,3.60
2019-05-09T20:20:13.795Z,3.55
2019-05-09T20:22:52.358Z,3.60
2019-05-09T20:25:16.067Z,4.00
2019-05-09T20:30:16.736Z,4.15
2019-05-09T20:32:46.964Z,4.75
2019-05-09T20:35:17.150Z,4.30
2019-05-09T20:37:47.851Z,4.53
2019-05-09T20:40:18.257Z,4.83
2019-05-09T20:42:49.008Z,5.83
2019-05-09T20:45:19.366Z,5.50
2019-05-09T20:47:52.852Z,6.40
2019-05-09T20:50:23.311Z,6.83
2019-05-09T20:53:08.539Z,6.17
2019-05-09T20:55:26.907Z,7.85
2019-05-09T20:57:57.299Z,8.53
2019-05-09T21:02:58.156Z,9.43
2019-05-09T21:05:28.544Z,10.00
2019-05-09T21:07:59.103Z,11.57
2019-05-09T21:10:29.480Z,7.47
2019-05-09T21:12:59.869Z,11.70
2019-05-09T21:15:30.259Z,11.83
2019-05-09T21:18:00.719Z,10.93
2019-05-09T21:20:31.104Z,11.93
2019-05-09T21:23:04.457Z,8.70
2019-05-09T21:25:34.805Z,11.57
2019-05-09T21:28:08.104Z,11.90
2019-05-09T21:30:38.478Z,11.50
2019-05-09T21:33:09.658Z,10.30
2019-05-09T21:35:39.859Z,11.43
2019-05-09T21:38:10.092Z,10.78
2019-05-09T21:40:40.334Z,9.45
2019-05-09T21:43:11.907Z,9.15
2019-05-09T21:45:43.358Z,10.00
2019-05-09T21:48:13.675Z,10.07
2019-05-09T21:53:14.475Z,8.08
2019-05-09T21:55:44.683Z,8.43
2019-05-09T21:58:14.903Z,7.83
2019-05-09T22:00:46.354Z,7.22
2019-05-09T22:03:18.231Z,7.22
2019-05-09T22:05:48.422Z,7.78
2019-05-09T22:08:18.675Z,8.65
2019-05-09T22:10:48.855Z,8.58
2019-05-09T22:13:19.159Z,9.05
2019-05-09T22:15:49.349Z,10.32
2019-05-09T22:18:19.561Z,10.88
2019-05-09T22:20:49.787Z,11.70
2019-05-09T22:23:20.027Z,11.65
2019-05-09T22:25:50.227Z,12.35
2019-05-09T22:28:20.451Z,11.03
2019-05-09T22:30:50.715Z,12.35
2019-05-09T22:33:20.927Z,12.30
2019-05-09T22:35:51.130Z,12.18
2019-05-09T22:38:21.355Z,12.58
2019-05-09T22:40:51.728Z,12.80
2019-05-09T22:43:21.951Z,13.72
2019-05-09T22:45:52.181Z,14.15
2019-05-09T22:48:22.400Z,15.15
2019-05-09T22:50:52.604Z,14.73
2019-05-09T22:53:22.851Z,14.63
2019-05-09T22:55:53.062Z,14.80
2019-05-09T22:58:23.328Z,15.38
2019-05-09T23:00:53.524Z,15.32
2019-05-09T23:03:23.739Z,17.15
2019-05-09T23:05:53.927Z,15.25
2019-05-09T23:08:24.146Z,14.70
2019-05-09T23:10:55.406Z,13.43
2019-05-09T23:13:25.616Z,14.60
2019-05-09T23:15:55.804Z,13.45
2019-05-09T23:18:26.035Z,13.72
2019-05-09T23:20:56.844Z,14.20
2019-05-09T23:23:38.092Z,12.53
2019-05-09T23:26:08.291Z,11.00
2019-05-09T23:29:14.948Z,10.48
2019-05-09T23:31:47.740Z,9.60
2019-05-09T23:34:18.023Z,9.68
2019-05-09T23:36:48.207Z,9.85
2019-05-09T23:39:23.156Z,9.08
2019-05-09T23:41:53.383Z,10.13
2019-05-09T23:45:18.943Z,10.05
2019-05-09T23:47:49.159Z,10.32
2019-05-09T23:50:19.355Z,9.45
2019-05-09T23:52:49.565Z,10.48
2019-05-09T23:55:38.143Z,10.58
2019-05-09T23:58:26.896Z,10.32
